KCKB/CKB METAR and TAF weather

Enter ICAO airport designator
Station Type Date Time Source
KCKB METAR 2020/02/27 13:53 UTC NOAA

KCKB 271353Z 31015G29KT 10SM BKN034 OVC042 M03/M11 A2996 RMK AO2 PK WND 26031/1336 SNE23 SLP151 P0000 T10331111


Station Type Date Time Source
KCKB Decoded METAR 2020/02/27 13:53 UTC NOAA

HARRISON/MARION REGIONAL, WV, United States (KCKB) 39-18N 080-13W 360M
Feb 27, 2020 - 08:53 AM EST / 2020.02.27 1353 UTC
Wind: from the NW (310 degrees) at 17 MPH (15 KT) gusting to 33 MPH (29 KT):0
Visibility: 10 mile(s):0
Sky conditions: overcast
Precipitation last hour: A trace
Temperature: 26.1 F (-3.3 C)
Windchill: 14 F (-10 C):1
Dew Point: 12.0 F (-11.1 C)
Relative Humidity: 54%
Pressure (altimeter): 29.96 in. Hg (1014 hPa)
ob: KCKB 271353Z 31015G29KT 10SM BKN034 OVC042 M03/M11 A2996 RMK AO2 PK WND 26031/1336 SNE23 SLP151 P0000 T10331111
cycle: 14

Station Type Date Time Source
KCKB TAF 2020/02/27 12:40 UTC NOAA

TAF KCKB 271138Z 2712/2812 26011G19KT 3SM -SN OVC022
FM271800 27017G23KT P6SM -SHSN BKN035
FM272300 27017G23KT P6SM BKN035
FM280400 25011G18KT 6SM -SN BKN027 PROB30 2805/2811 2SM -SN OVC016

Example: see airport list